sensor_id;sensor_type;location;lat;lon;timestamp;P1;durP1;ratioP1;P2;durP2;ratioP2
51332;SDS011;37417;48.118;11.734;2024-03-23T00:56:15;3.25;;;2.10;;
51332;SDS011;37417;48.118;11.734;2024-03-23T00:59:01;2.08;;;1.42;;
51332;SDS011;37417;48.118;11.734;2024-03-23T01:01:46;3.25;;;1.98;;
51332;SDS011;37417;48.118;11.734;2024-03-23T01:04:32;2.67;;;1.75;;
51332;SDS011;37417;48.118;11.734;2024-03-23T01:07:18;2.30;;;1.60;;
51332;SDS011;37417;48.118;11.734;2024-03-23T01:10:04;2.67;;;1.58;;
51332;SDS011;37417;48.118;11.734;2024-03-23T01:12:49;2.55;;;1.80;;
51332;SDS011;37417;48.118;11.734;2024-03-23T01:15:35;1.50;;;1.00;;
51332;SDS011;37417;48.118;11.734;2024-03-23T01:18:21;7.50;;;1.95;;
51332;SDS011;37417;48.118;11.734;2024-03-23T01:21:06;1.77;;;1.60;;
51332;SDS011;37417;48.118;11.734;2024-03-23T01:23:52;1.90;;;1.35;;
51332;SDS011;37417;48.118;11.734;2024-03-23T01:26:37;1.85;;;1.70;;
51332;SDS011;37417;48.118;11.734;2024-03-23T01:29:23;1.45;;;1.30;;
51332;SDS011;37417;48.118;11.734;2024-03-23T01:32:08;2.33;;;2.00;;
51332;SDS011;37417;48.118;11.734;2024-03-23T01:34:54;3.15;;;1.83;;
51332;SDS011;37417;48.118;11.734;2024-03-23T01:37:39;2.28;;;1.80;;
51332;SDS011;37417;48.118;11.734;2024-03-23T01:40:25;1.35;;;1.25;;
51332;SDS011;37417;48.118;11.734;2024-03-23T01:43:12;4.30;;;2.03;;
51332;SDS011;37417;48.118;11.734;2024-03-23T01:45:58;1.83;;;1.33;;
51332;SDS011;37417;48.118;11.734;2024-03-23T01:48:43;2.38;;;1.58;;
51332;SDS011;37417;48.118;11.734;2024-03-23T01:51:29;1.88;;;1.60;;
51332;SDS011;37417;48.118;11.734;2024-03-23T01:54:15;1.40;;;1.30;;
51332;SDS011;37417;48.118;11.734;2024-03-23T01:57:00;2.03;;;1.20;;
51332;SDS011;37417;48.118;11.734;2024-03-23T01:59:46;1.65;;;1.40;;
51332;SDS011;37417;48.118;11.734;2024-03-23T02:02:35;1.67;;;1.20;;
51332;SDS011;37417;48.118;11.734;2024-03-23T02:05:21;1.48;;;1.30;;
51332;SDS011;37417;48.118;11.734;2024-03-23T02:08:07;6.38;;;1.27;;
51332;SDS011;37417;48.118;11.734;2024-03-23T02:10:52;2.67;;;1.23;;
51332;SDS011;37417;48.118;11.734;2024-03-23T02:13:38;6.10;;;1.30;;
51332;SDS011;37417;48.118;11.734;2024-03-23T02:16:23;1.63;;;1.20;;
51332;SDS011;37417;48.118;11.734;2024-03-23T02:19:09;1.58;;;1.40;;
51332;SDS011;37417;48.118;11.734;2024-03-23T02:21:55;1.52;;;1.08;;
51332;SDS011;37417;48.118;11.734;2024-03-23T02:24:40;3.95;;;1.38;;
51332;SDS011;37417;48.118;11.734;2024-03-23T02:27:26;1.67;;;1.23;;
51332;SDS011;37417;48.118;11.734;2024-03-23T02:30:12;1.20;;;1.10;;
51332;SDS011;37417;48.118;11.734;2024-03-23T02:32:57;2.67;;;1.05;;
51332;SDS011;37417;48.118;11.734;2024-03-23T02:35:46;1.63;;;1.40;;
51332;SDS011;37417;48.118;11.734;2024-03-23T02:38:32;1.80;;;1.25;;
51332;SDS011;37417;48.118;11.734;2024-03-23T02:41:17;2.60;;;1.65;;
51332;SDS011;37417;48.118;11.734;2024-03-23T02:44:08;1.67;;;1.55;;
51332;SDS011;37417;48.118;11.734;2024-03-23T02:46:57;4.28;;;1.55;;
51332;SDS011;37417;48.118;11.734;2024-03-23T02:49:42;2.67;;;1.60;;
51332;SDS011;37417;48.118;11.734;2024-03-23T02:52:28;1.48;;;1.05;;
51332;SDS011;37417;48.118;11.734;2024-03-23T02:55:14;3.67;;;1.35;;
51332;SDS011;37417;48.118;11.734;2024-03-23T02:58:02;3.47;;;1.30;;
51332;SDS011;37417;48.118;11.734;2024-03-23T03:00:48;1.77;;;1.23;;
51332;SDS011;37417;48.118;11.734;2024-03-23T03:03:34;1.38;;;1.13;;
51332;SDS011;37417;48.118;11.734;2024-03-23T03:06:25;2.58;;;0.98;;
51332;SDS011;37417;48.118;11.734;2024-03-23T03:09:11;1.15;;;1.00;;
51332;SDS011;37417;48.118;11.734;2024-03-23T03:11:57;3.75;;;1.13;;
51332;SDS011;37417;48.118;11.734;2024-03-23T03:14:42;2.05;;;1.25;;
51332;SDS011;37417;48.118;11.734;2024-03-23T03:17:28;2.03;;;1.52;;
51332;SDS011;37417;48.118;11.734;2024-03-23T03:20:13;2.70;;;1.17;;
51332;SDS011;37417;48.118;11.734;2024-03-23T03:23:00;0.80;;;0.80;;
51332;SDS011;37417;48.118;11.734;2024-03-23T03:25:46;2.28;;;1.08;;
51332;SDS011;37417;48.118;11.734;2024-03-23T03:28:31;2.05;;;1.42;;
51332;SDS011;37417;48.118;11.734;2024-03-23T03:31:18;1.73;;;0.85;;
51332;SDS011;37417;48.118;11.734;2024-03-23T03:34:03;1.70;;;1.35;;
51332;SDS011;37417;48.118;11.734;2024-03-23T03:36:49;8.10;;;1.42;;
51332;SDS011;37417;48.118;11.734;2024-03-23T03:39:34;2.83;;;1.20;;
51332;SDS011;37417;48.118;11.734;2024-03-23T03:42:20;1.58;;;1.02;;
51332;SDS011;37417;48.118;11.734;2024-03-23T03:45:06;0.98;;;0.80;;
51332;SDS011;37417;48.118;11.734;2024-03-23T03:47:51;5.35;;;1.00;;
51332;SDS011;37417;48.118;11.734;2024-03-23T03:50:37;1.95;;;1.20;;
51332;SDS011;37417;48.118;11.734;2024-03-23T03:53:24;1.38;;;1.10;;
51332;SDS011;37417;48.118;11.734;2024-03-23T03:56:09;1.80;;;1.30;;
51332;SDS011;37417;48.118;11.734;2024-03-23T03:58:55;1.10;;;1.00;;
51332;SDS011;37417;48.118;11.734;2024-03-23T04:01:40;1.38;;;1.23;;
51332;SDS011;37417;48.118;11.734;2024-03-23T04:04:26;2.28;;;0.98;;
51332;SDS011;37417;48.118;11.734;2024-03-23T04:07:11;2.58;;;1.00;;
51332;SDS011;37417;48.118;11.734;2024-03-23T04:09:57;1.67;;;1.40;;
51332;SDS011;37417;48.118;11.734;2024-03-23T04:12:43;1.95;;;0.95;;
51332;SDS011;37417;48.118;11.734;2024-03-23T04:15:29;4.32;;;1.15;;
51332;SDS011;37417;48.118;11.734;2024-03-23T04:18:14;2.65;;;1.00;;
51332;SDS011;37417;48.118;11.734;2024-03-23T04:21:00;1.05;;;0.95;;
51332;SDS011;37417;48.118;11.734;2024-03-23T04:23:46;1.77;;;1.02;;
51332;SDS011;37417;48.118;11.734;2024-03-23T04:26:40;1.73;;;1.20;;
51332;SDS011;37417;48.118;11.734;2024-03-23T04:29:25;2.00;;;1.20;;
51332;SDS011;37417;48.118;11.734;2024-03-23T04:32:12;1.08;;;0.98;;
51332;SDS011;37417;48.118;11.734;2024-03-23T04:34:59;2.50;;;0.90;;
51332;SDS011;37417;48.118;11.734;2024-03-23T04:37:44;5.20;;;1.38;;
51332;SDS011;37417;48.118;11.734;2024-03-23T04:40:30;1.42;;;1.00;;
51332;SDS011;37417;48.118;11.734;2024-03-23T04:43:15;1.65;;;0.98;;
51332;SDS011;37417;48.118;11.734;2024-03-23T04:46:01;1.83;;;0.60;;
51332;SDS011;37417;48.118;11.734;2024-03-23T04:48:46;3.85;;;1.10;;
51332;SDS011;37417;48.118;11.734;2024-03-23T04:51:35;1.77;;;1.05;;
51332;SDS011;37417;48.118;11.734;2024-03-23T04:54:22;0.98;;;0.90;;
51332;SDS011;37417;48.118;11.734;2024-03-23T04:57:08;2.25;;;1.00;;
51332;SDS011;37417;48.118;11.734;2024-03-23T04:59:53;1.40;;;0.93;;
51332;SDS011;37417;48.118;11.734;2024-03-23T05:02:39;1.05;;;0.93;;
51332;SDS011;37417;48.118;11.734;2024-03-23T05:05:24;1.08;;;0.98;;
51332;SDS011;37417;48.118;11.734;2024-03-23T05:08:10;1.23;;;0.98;;
51332;SDS011;37417;48.118;11.734;2024-03-23T05:10:55;2.05;;;0.80;;
51332;SDS011;37417;48.118;11.734;2024-03-23T05:13:41;2.05;;;1.00;;
51332;SDS011;37417;48.118;11.734;2024-03-23T05:16:27;1.40;;;1.00;;
51332;SDS011;37417;48.118;11.734;2024-03-23T05:19:12;2.22;;;1.00;;
51332;SDS011;37417;48.118;11.734;2024-03-23T05:21:58;2.30;;;1.02;;
51332;SDS011;37417;48.118;11.734;2024-03-23T05:24:45;1.02;;;0.88;;
51332;SDS011;37417;48.118;11.734;2024-03-23T05:27:31;1.30;;;1.20;;
51332;SDS011;37417;48.118;11.734;2024-03-23T05:30:17;3.08;;;0.98;;
51332;SDS011;37417;48.118;11.734;2024-03-23T05:33:02;1.73;;;0.85;;
51332;SDS011;37417;48.118;11.734;2024-03-23T05:35:55;0.88;;;0.77;;
51332;SDS011;37417;48.118;11.734;2024-03-23T05:38:41;1.60;;;0.95;;
51332;SDS011;37417;48.118;11.734;2024-03-23T05:41:26;1.63;;;0.88;;
51332;SDS011;37417;48.118;11.734;2024-03-23T05:44:12;0.40;;;0.40;;
51332;SDS011;37417;48.118;11.734;2024-03-23T05:46:58;1.42;;;0.77;;
51332;SDS011;37417;48.118;11.734;2024-03-23T05:49:43;2.60;;;0.90;;
51332;SDS011;37417;48.118;11.734;2024-03-23T05:52:29;2.60;;;1.02;;
51332;SDS011;37417;48.118;11.734;2024-03-23T05:55:14;1.27;;;0.85;;
51332;SDS011;37417;48.118;11.734;2024-03-23T05:58:00;1.80;;;1.10;;
51332;SDS011;37417;48.118;11.734;2024-03-23T06:00:45;1.23;;;0.90;;
51332;SDS011;37417;48.118;11.734;2024-03-23T06:03:31;1.27;;;0.88;;
51332;SDS011;37417;48.118;11.734;2024-03-23T06:06:17;1.10;;;0.90;;
51332;SDS011;37417;48.118;11.734;2024-03-23T06:09:02;1.00;;;0.90;;
51332;SDS011;37417;48.118;11.734;2024-03-23T06:11:48;3.50;;;0.90;;
51332;SDS011;37417;48.118;11.734;2024-03-23T06:14:34;0.80;;;0.57;;
51332;SDS011;37417;48.118;11.734;2024-03-23T06:17:19;1.42;;;0.90;;
51332;SDS011;37417;48.118;11.734;2024-03-23T06:20:05;0.60;;;0.60;;
51332;SDS011;37417;48.118;11.734;2024-03-23T06:22:55;1.60;;;0.68;;
51332;SDS011;37417;48.118;11.734;2024-03-23T06:25:41;2.92;;;1.52;;
51332;SDS011;37417;48.118;11.734;2024-03-23T06:28:26;1.95;;;0.80;;
51332;SDS011;37417;48.118;11.734;2024-03-23T06:31:12;1.50;;;0.68;;
51332;SDS011;37417;48.118;11.734;2024-03-23T06:33:57;0.60;;;0.60;;
51332;SDS011;37417;48.118;11.734;2024-03-23T06:36:43;1.38;;;0.90;;
51332;SDS011;37417;48.118;11.734;2024-03-23T06:39:29;1.25;;;0.60;;
51332;SDS011;37417;48.118;11.734;2024-03-23T06:42:15;1.40;;;0.60;;
51332;SDS011;37417;48.118;11.734;2024-03-23T06:45:00;3.42;;;0.75;;
51332;SDS011;37417;48.118;11.734;2024-03-23T06:47:46;1.10;;;0.65;;
51332;SDS011;37417;48.118;11.734;2024-03-23T06:50:31;0.70;;;0.70;;
51332;SDS011;37417;48.118;11.734;2024-03-23T06:53:17;1.75;;;0.77;;
51332;SDS011;37417;48.118;11.734;2024-03-23T06:56:03;0.90;;;0.68;;
51332;SDS011;37417;48.118;11.734;2024-03-23T06:58:48;3.15;;;0.68;;
51332;SDS011;37417;48.118;11.734;2024-03-23T07:01:34;1.50;;;0.88;;
51332;SDS011;37417;48.118;11.734;2024-03-23T07:04:20;1.75;;;0.52;;
51332;SDS011;37417;48.118;11.734;2024-03-23T07:07:06;2.15;;;1.00;;
51332;SDS011;37417;48.118;11.734;2024-03-23T07:09:51;0.93;;;0.80;;
51332;SDS011;37417;48.118;11.734;2024-03-23T07:12:38;6.13;;;0.73;;
51332;SDS011;37417;48.118;11.734;2024-03-23T07:15:23;2.20;;;0.95;;
51332;SDS011;37417;48.118;11.734;2024-03-23T07:18:09;1.10;;;0.70;;
51332;SDS011;37417;48.118;11.734;2024-03-23T07:20:54;1.08;;;0.60;;
51332;SDS011;37417;48.118;11.734;2024-03-23T07:23:42;0.40;;;0.40;;
51332;SDS011;37417;48.118;11.734;2024-03-23T07:26:29;1.63;;;0.70;;
51332;SDS011;37417;48.118;11.734;2024-03-23T07:29:15;2.30;;;1.05;;
51332;SDS011;37417;48.118;11.734;2024-03-23T07:32:01;1.38;;;0.65;;
51332;SDS011;37417;48.118;11.734;2024-03-23T07:34:46;1.23;;;0.70;;
51332;SDS011;37417;48.118;11.734;2024-03-23T07:37:32;1.65;;;0.40;;
51332;SDS011;37417;48.118;11.734;2024-03-23T07:40:17;2.15;;;0.80;;
51332;SDS011;37417;48.118;11.734;2024-03-23T07:43:03;0.82;;;0.50;;
51332;SDS011;37417;48.118;11.734;2024-03-23T07:45:52;1.70;;;0.60;;
51332;SDS011;37417;48.118;11.734;2024-03-23T07:48:38;1.17;;;0.40;;
51332;SDS011;37417;48.118;11.734;2024-03-23T07:51:25;1.73;;;0.80;;
51332;SDS011;37417;48.118;11.734;2024-03-23T07:54:10;1.45;;;0.88;;
51332;SDS011;37417;48.118;11.734;2024-03-23T07:56:56;0.88;;;0.68;;
51332;SDS011;37417;48.118;11.734;2024-03-23T07:59:41;1.83;;;1.10;;
51332;SDS011;37417;48.118;11.734;2024-03-23T08:02:27;2.00;;;0.95;;
51332;SDS011;37417;48.118;11.734;2024-03-23T08:05:12;0.90;;;0.80;;
51332;SDS011;37417;48.118;11.734;2024-03-23T08:07:58;1.77;;;1.35;;
51332;SDS011;37417;48.118;11.734;2024-03-23T08:10:47;1.10;;;0.82;;
51332;SDS011;37417;48.118;11.734;2024-03-23T08:13:32;1.17;;;0.93;;
51332;SDS011;37417;48.118;11.734;2024-03-23T08:16:18;1.95;;;0.90;;
51332;SDS011;37417;48.118;11.734;2024-03-23T08:19:04;4.70;;;1.13;;
51332;SDS011;37417;48.118;11.734;2024-03-23T08:21:50;1.92;;;1.33;;
51332;SDS011;37417;48.118;11.734;2024-03-23T08:24:36;1.30;;;0.95;;
51332;SDS011;37417;48.118;11.734;2024-03-23T08:27:22;1.48;;;1.30;;
51332;SDS011;37417;48.118;11.734;2024-03-23T08:30:08;1.23;;;1.13;;
51332;SDS011;37417;48.118;11.734;2024-03-23T08:32:53;1.65;;;1.45;;
51332;SDS011;37417;48.118;11.734;2024-03-23T08:35:39;2.40;;;2.17;;
51332;SDS011;37417;48.118;11.734;2024-03-23T08:38:25;2.10;;;1.83;;
51332;SDS011;37417;48.118;11.734;2024-03-23T08:41:11;2.13;;;1.33;;
51332;SDS011;37417;48.118;11.734;2024-03-23T08:43:56;2.00;;;0.98;;
51332;SDS011;37417;48.118;11.734;2024-03-23T08:46:42;2.78;;;0.75;;
51332;SDS011;37417;48.118;11.734;2024-03-23T08:49:27;1.92;;;1.27;;
51332;SDS011;37417;48.118;11.734;2024-03-23T08:52:13;1.38;;;1.15;;
51332;SDS011;37417;48.118;11.734;2024-03-23T08:54:58;4.50;;;1.42;;
51332;SDS011;37417;48.118;11.734;2024-03-23T08:57:44;1.55;;;1.15;;
51332;SDS011;37417;48.118;11.734;2024-03-23T09:00:30;2.72;;;2.05;;
51332;SDS011;37417;48.118;11.734;2024-03-23T09:03:15;3.20;;;1.30;;
51332;SDS011;37417;48.118;11.734;2024-03-23T09:06:02;1.75;;;1.00;;
51332;SDS011;37417;48.118;11.734;2024-03-23T09:08:47;2.63;;;1.35;;
51332;SDS011;37417;48.118;11.734;2024-03-23T09:11:33;1.88;;;1.67;;
51332;SDS011;37417;48.118;11.734;2024-03-23T09:14:18;2.22;;;1.55;;
51332;SDS011;37417;48.118;11.734;2024-03-23T09:17:04;2.78;;;1.50;;
51332;SDS011;37417;48.118;11.734;2024-03-23T09:19:50;2.40;;;1.80;;
51332;SDS011;37417;48.118;11.734;2024-03-23T09:22:36;2.92;;;1.67;;
51332;SDS011;37417;48.118;11.734;2024-03-23T09:25:21;1.35;;;0.93;;
51332;SDS011;37417;48.118;11.734;2024-03-23T09:28:07;2.67;;;1.52;;
51332;SDS011;37417;48.118;11.734;2024-03-23T09:31:01;6.05;;;1.77;;
51332;SDS011;37417;48.118;11.734;2024-03-23T09:33:47;2.30;;;1.63;;
51332;SDS011;37417;48.118;11.734;2024-03-23T09:36:32;2.22;;;1.50;;
51332;SDS011;37417;48.118;11.734;2024-03-23T09:39:18;3.33;;;1.63;;
51332;SDS011;37417;48.118;11.734;2024-03-23T09:42:04;2.85;;;1.70;;
51332;SDS011;37417;48.118;11.734;2024-03-23T09:44:50;1.90;;;1.67;;
51332;SDS011;37417;48.118;11.734;2024-03-23T09:47:36;2.47;;;2.08;;
51332;SDS011;37417;48.118;11.734;2024-03-23T09:50:22;2.10;;;1.88;;
51332;SDS011;37417;48.118;11.734;2024-03-23T09:53:08;2.85;;;1.77;;
51332;SDS011;37417;48.118;11.734;2024-03-23T09:55:54;1.27;;;0.80;;
51332;SDS011;37417;48.118;11.734;2024-03-23T09:58:40;1.65;;;1.00;;
51332;SDS011;37417;48.118;11.734;2024-03-23T10:01:26;1.05;;;0.88;;
51332;SDS011;37417;48.118;11.734;2024-03-23T10:04:11;1.13;;;0.82;;
51332;SDS011;37417;48.118;11.734;2024-03-23T10:07:07;1.05;;;0.95;;
51332;SDS011;37417;48.118;11.734;2024-03-23T10:09:55;0.85;;;0.70;;
51332;SDS011;37417;48.118;11.734;2024-03-23T10:12:45;1.33;;;0.90;;
51332;SDS011;37417;48.118;11.734;2024-03-23T10:15:35;0.60;;;0.60;;
51332;SDS011;37417;48.118;11.734;2024-03-23T10:18:21;2.10;;;0.68;;
51332;SDS011;37417;48.118;11.734;2024-03-23T10:21:11;0.28;;;0.28;;
51332;SDS011;37417;48.118;11.734;2024-03-23T10:23:57;0.85;;;0.40;;
51332;SDS011;37417;48.118;11.734;2024-03-23T10:26:56;0.35;;;0.35;;
51332;SDS011;37417;48.118;11.734;2024-03-23T10:29:41;2.28;;;0.50;;
51332;SDS011;37417;48.118;11.734;2024-03-23T10:32:27;0.65;;;0.65;;
51332;SDS011;37417;48.118;11.734;2024-03-23T10:35:19;0.80;;;0.70;;
51332;SDS011;37417;48.118;11.734;2024-03-23T10:38:05;0.95;;;0.68;;
51332;SDS011;37417;48.118;11.734;2024-03-23T10:40:52;0.45;;;0.45;;
51332;SDS011;37417;48.118;11.734;2024-03-23T10:43:38;1.23;;;0.90;;
51332;SDS011;37417;48.118;11.734;2024-03-23T10:46:24;2.03;;;0.57;;
51332;SDS011;37417;48.118;11.734;2024-03-23T10:49:09;1.38;;;0.73;;
51332;SDS011;37417;48.118;11.734;2024-03-23T10:51:58;0.50;;;0.40;;
51332;SDS011;37417;48.118;11.734;2024-03-23T10:54:44;1.42;;;0.80;;
51332;SDS011;37417;48.118;11.734;2024-03-23T10:57:33;1.70;;;1.00;;
51332;SDS011;37417;48.118;11.734;2024-03-23T11:00:20;0.30;;;0.30;;
51332;SDS011;37417;48.118;11.734;2024-03-23T11:06:38;0.32;;;0.25;;
51332;SDS011;37417;48.118;11.734;2024-03-23T11:09:39;0.30;;;0.30;;
51332;SDS011;37417;48.118;11.734;2024-03-23T11:12:28;0.40;;;0.22;;
51332;SDS011;37417;48.118;11.734;2024-03-23T11:15:20;1.13;;;0.30;;
51332;SDS011;37417;48.118;11.734;2024-03-23T11:18:06;0.20;;;0.20;;
51332;SDS011;37417;48.118;11.734;2024-03-23T11:20:54;0.60;;;0.28;;
51332;SDS011;37417;48.118;11.734;2024-03-23T11:23:39;0.10;;;0.10;;
51332;SDS011;37417;48.118;11.734;2024-03-23T11:26:25;4.00;;;0.52;;
51332;SDS011;37417;48.118;11.734;2024-03-23T11:29:11;3.10;;;0.70;;
51332;SDS011;37417;48.118;11.734;2024-03-23T11:31:56;1.38;;;0.77;;
51332;SDS011;37417;48.118;11.734;2024-03-23T11:34:43;0.55;;;0.40;;
51332;SDS011;37417;48.118;11.734;2024-03-23T11:37:29;1.85;;;0.73;;
51332;SDS011;37417;48.118;11.734;2024-03-23T11:40:18;0.30;;;0.30;;
51332;SDS011;37417;48.118;11.734;2024-03-23T11:43:10;2.50;;;0.60;;
51332;SDS011;37417;48.118;11.734;2024-03-23T11:45:57;1.25;;;0.43;;
51332;SDS011;37417;48.118;11.734;2024-03-23T11:48:49;0.57;;;0.50;;
51332;SDS011;37417;48.118;11.734;2024-03-23T11:51:34;1.55;;;0.85;;
51332;SDS011;37417;48.118;11.734;2024-03-23T11:54:23;1.00;;;0.52;;
51332;SDS011;37417;48.118;11.734;2024-03-23T11:57:09;2.30;;;0.50;;
51332;SDS011;37417;48.118;11.734;2024-03-23T11:59:55;0.88;;;0.40;;
51332;SDS011;37417;48.118;11.734;2024-03-23T12:02:40;0.32;;;0.32;;
51332;SDS011;37417;48.118;11.734;2024-03-23T12:05:26;0.57;;;0.50;;
51332;SDS011;37417;48.118;11.734;2024-03-23T12:08:15;0.88;;;0.60;;
51332;SDS011;37417;48.118;11.734;2024-03-23T12:11:07;2.83;;;0.63;;
51332;SDS011;37417;48.118;11.734;2024-03-23T12:13:54;1.30;;;0.57;;
51332;SDS011;37417;48.118;11.734;2024-03-23T12:16:45;1.75;;;0.68;;
51332;SDS011;37417;48.118;11.734;2024-03-23T12:19:30;0.77;;;0.45;;
51332;SDS011;37417;48.118;11.734;2024-03-23T12:22:16;3.30;;;0.93;;
51332;SDS011;37417;48.118;11.734;2024-03-23T12:25:05;1.80;;;0.98;;
51332;SDS011;37417;48.118;11.734;2024-03-23T12:27:52;1.08;;;0.80;;
51332;SDS011;37417;48.118;11.734;2024-03-23T12:30:40;2.88;;;1.40;;
51332;SDS011;37417;48.118;11.734;2024-03-23T12:33:26;2.35;;;1.08;;
51332;SDS011;37417;48.118;11.734;2024-03-23T12:36:12;0.82;;;0.80;;
51332;SDS011;37417;48.118;11.734;2024-03-23T12:38:57;1.13;;;1.00;;
51332;SDS011;37417;48.118;11.734;2024-03-23T12:41:43;2.25;;;1.30;;
51332;SDS011;37417;48.118;11.734;2024-03-23T12:44:28;2.13;;;1.55;;
51332;SDS011;37417;48.118;11.734;2024-03-23T12:47:14;1.58;;;1.00;;
51332;SDS011;37417;48.118;11.734;2024-03-23T12:50:00;1.50;;;1.38;;
51332;SDS011;37417;48.118;11.734;2024-03-23T12:52:45;3.08;;;1.52;;
51332;SDS011;37417;48.118;11.734;2024-03-23T12:55:31;3.45;;;1.65;;
51332;SDS011;37417;48.118;11.734;2024-03-23T12:58:16;1.63;;;1.38;;
51332;SDS011;37417;48.118;11.734;2024-03-23T13:01:02;2.95;;;1.83;;
51332;SDS011;37417;48.118;11.734;2024-03-23T13:03:49;2.78;;;1.15;;
51332;SDS011;37417;48.118;11.734;2024-03-23T13:06:35;3.75;;;1.48;;
51332;SDS011;37417;48.118;11.734;2024-03-23T13:09:21;0.70;;;0.60;;
51332;SDS011;37417;48.118;11.734;2024-03-23T13:12:06;3.47;;;1.30;;
51332;SDS011;37417;48.118;11.734;2024-03-23T13:14:52;2.72;;;0.90;;
51332;SDS011;37417;48.118;11.734;2024-03-23T13:17:37;4.55;;;1.00;;
51332;SDS011;37417;48.118;11.734;2024-03-23T13:20:23;3.25;;;1.58;;
51332;SDS011;37417;48.118;11.734;2024-03-23T13:23:08;6.65;;;0.98;;
51332;SDS011;37417;48.118;11.734;2024-03-23T13:25:55;3.22;;;0.82;;
51332;SDS011;37417;48.118;11.734;2024-03-23T13:28:41;3.45;;;1.35;;
51332;SDS011;37417;48.118;11.734;2024-03-23T13:31:26;3.63;;;1.20;;
51332;SDS011;37417;48.118;11.734;2024-03-23T13:34:12;4.55;;;1.10;;
51332;SDS011;37417;48.118;11.734;2024-03-23T13:37:00;5.15;;;1.27;;
51332;SDS011;37417;48.118;11.734;2024-03-23T13:39:46;4.78;;;1.42;;
51332;SDS011;37417;48.118;11.734;2024-03-23T13:42:31;1.15;;;0.85;;
51332;SDS011;37417;48.118;11.734;2024-03-23T13:45:17;3.53;;;1.23;;
51332;SDS011;37417;48.118;11.734;2024-03-23T13:48:02;5.32;;;1.70;;
51332;SDS011;37417;48.118;11.734;2024-03-23T13:53:43;3.15;;;1.35;;
51332;SDS011;37417;48.118;11.734;2024-03-23T13:56:30;1.65;;;1.10;;
51332;SDS011;37417;48.118;11.734;2024-03-23T13:59:15;3.58;;;1.15;;
51332;SDS011;37417;48.118;11.734;2024-03-23T14:02:01;1.75;;;0.80;;
51332;SDS011;37417;48.118;11.734;2024-03-23T14:04:46;1.40;;;0.95;;
51332;SDS011;37417;48.118;11.734;2024-03-23T14:07:32;5.20;;;1.45;;
51332;SDS011;37417;48.118;11.734;2024-03-23T14:10:17;4.35;;;1.98;;
51332;SDS011;37417;48.118;11.734;2024-03-23T14:13:03;2.10;;;1.92;;
51332;SDS011;37417;48.118;11.734;2024-03-23T14:15:52;4.43;;;1.90;;
51332;SDS011;37417;48.118;11.734;2024-03-23T14:18:38;3.53;;;1.63;;
51332;SDS011;37417;48.118;11.734;2024-03-23T14:21:24;4.78;;;2.25;;
51332;SDS011;37417;48.118;11.734;2024-03-23T14:24:09;2.50;;;2.17;;
51332;SDS011;37417;48.118;11.734;2024-03-23T14:26:55;6.57;;;2.08;;
51332;SDS011;37417;48.118;11.734;2024-03-23T14:29:40;4.63;;;1.77;;
51332;SDS011;37417;48.118;11.734;2024-03-23T14:32:26;4.00;;;2.10;;
51332;SDS011;37417;48.118;11.734;2024-03-23T14:35:11;6.03;;;2.40;;
51332;SDS011;37417;48.118;11.734;2024-03-23T14:37:57;4.35;;;1.58;;
51332;SDS011;37417;48.118;11.734;2024-03-23T14:40:42;3.13;;;2.10;;
51332;SDS011;37417;48.118;11.734;2024-03-23T14:43:28;5.00;;;2.95;;
51332;SDS011;37417;48.118;11.734;2024-03-23T14:46:15;7.00;;;2.88;;
51332;SDS011;37417;48.118;11.734;2024-03-23T14:49:04;5.28;;;2.35;;
51332;SDS011;37417;48.118;11.734;2024-03-23T14:51:50;8.50;;;2.90;;
51332;SDS011;37417;48.118;11.734;2024-03-23T14:54:35;6.53;;;2.85;;
51332;SDS011;37417;48.118;11.734;2024-03-23T14:57:21;6.60;;;2.35;;
51332;SDS011;37417;48.118;11.734;2024-03-23T15:00:07;5.38;;;2.58;;
51332;SDS011;37417;48.118;11.734;2024-03-23T15:02:53;3.72;;;1.80;;
51332;SDS011;37417;48.118;11.734;2024-03-23T15:05:38;8.98;;;2.38;;
51332;SDS011;37417;48.118;11.734;2024-03-23T15:08:24;3.67;;;1.33;;
51332;SDS011;37417;48.118;11.734;2024-03-23T15:11:10;3.90;;;1.13;;
51332;SDS011;37417;48.118;11.734;2024-03-23T15:13:55;3.03;;;1.00;;
51332;SDS011;37417;48.118;11.734;2024-03-23T15:16:41;4.10;;;1.35;;
51332;SDS011;37417;48.118;11.734;2024-03-23T15:19:30;6.70;;;1.52;;
51332;SDS011;37417;48.118;11.734;2024-03-23T15:22:15;2.80;;;1.20;;
51332;SDS011;37417;48.118;11.734;2024-03-23T15:25:01;4.50;;;1.02;;
51332;SDS011;37417;48.118;11.734;2024-03-23T15:27:46;3.25;;;1.20;;
51332;SDS011;37417;48.118;11.734;2024-03-23T15:30:32;1.60;;;1.20;;
51332;SDS011;37417;48.118;11.734;2024-03-23T15:33:19;4.68;;;1.30;;
51332;SDS011;37417;48.118;11.734;2024-03-23T15:36:05;2.78;;;1.60;;
51332;SDS011;37417;48.118;11.734;2024-03-23T15:38:50;3.08;;;0.95;;
51332;SDS011;37417;48.118;11.734;2024-03-23T15:41:36;2.92;;;1.50;;
51332;SDS011;37417;48.118;11.734;2024-03-23T15:44:22;6.90;;;1.23;;
51332;SDS011;37417;48.118;11.734;2024-03-23T15:47:07;3.65;;;1.60;;
51332;SDS011;37417;48.118;11.734;2024-03-23T15:49:53;3.90;;;2.22;;
51332;SDS011;37417;48.118;11.734;2024-03-23T15:52:40;2.60;;;1.85;;
51332;SDS011;37417;48.118;11.734;2024-03-23T15:55:26;4.55;;;1.80;;
51332;SDS011;37417;48.118;11.734;2024-03-23T15:58:11;3.95;;;1.40;;
51332;SDS011;37417;48.118;11.734;2024-03-23T16:00:58;4.80;;;1.23;;
51332;SDS011;37417;48.118;11.734;2024-03-23T16:03:44;4.43;;;1.77;;
51332;SDS011;37417;48.118;11.734;2024-03-23T16:06:29;5.00;;;1.58;;
51332;SDS011;37417;48.118;11.734;2024-03-23T16:09:15;3.72;;;1.50;;
51332;SDS011;37417;48.118;11.734;2024-03-23T16:12:00;4.75;;;1.13;;
51332;SDS011;37417;48.118;11.734;2024-03-23T16:14:46;6.32;;;1.10;;
51332;SDS011;37417;48.118;11.734;2024-03-23T16:17:31;3.85;;;1.08;;
51332;SDS011;37417;48.118;11.734;2024-03-23T16:20:20;4.88;;;1.42;;
51332;SDS011;37417;48.118;11.734;2024-03-23T16:23:07;4.32;;;0.98;;
51332;SDS011;37417;48.118;11.734;2024-03-23T16:25:53;1.80;;;1.17;;
51332;SDS011;37417;48.118;11.734;2024-03-23T16:28:41;3.90;;;1.02;;
51332;SDS011;37417;48.118;11.734;2024-03-23T16:31:27;5.93;;;1.10;;
51332;SDS011;37417;48.118;11.734;2024-03-23T16:34:12;5.70;;;1.25;;
51332;SDS011;37417;48.118;11.734;2024-03-23T16:36:58;2.33;;;1.15;;
51332;SDS011;37417;48.118;11.734;2024-03-23T16:39:43;5.45;;;1.20;;
51332;SDS011;37417;48.118;11.734;2024-03-23T16:42:29;3.55;;;1.52;;
51332;SDS011;37417;48.118;11.734;2024-03-23T16:45:15;2.17;;;1.25;;
51332;SDS011;37417;48.118;11.734;2024-03-23T16:48:00;5.18;;;1.77;;
51332;SDS011;37417;48.118;11.734;2024-03-23T16:50:48;1.50;;;1.40;;
51332;SDS011;37417;48.118;11.734;2024-03-23T16:53:34;3.63;;;1.42;;
51332;SDS011;37417;48.118;11.734;2024-03-23T16:56:20;1.67;;;0.95;;
51332;SDS011;37417;48.118;11.734;2024-03-23T16:59:05;1.88;;;1.00;;
51332;SDS011;37417;48.118;11.734;2024-03-23T17:01:51;4.15;;;1.30;;
51332;SDS011;37417;48.118;11.734;2024-03-23T17:04:37;5.15;;;1.40;;
51332;SDS011;37417;48.118;11.734;2024-03-23T17:07:22;3.35;;;1.15;;
51332;SDS011;37417;48.118;11.734;2024-03-23T17:10:08;1.95;;;1.27;;
51332;SDS011;37417;48.118;11.734;2024-03-23T17:12:53;8.50;;;1.80;;
51332;SDS011;37417;48.118;11.734;2024-03-23T17:15:42;2.20;;;1.58;;
51332;SDS011;37417;48.118;11.734;2024-03-23T17:18:28;3.42;;;1.73;;
51332;SDS011;37417;48.118;11.734;2024-03-23T17:21:14;2.35;;;1.65;;
51332;SDS011;37417;48.118;11.734;2024-03-23T17:23:59;3.90;;;1.55;;
51332;SDS011;37417;48.118;11.734;2024-03-23T17:26:45;3.15;;;1.77;;